• Join FlightAware (Why Join?)
  • Login
  • US Flag 
07:12AM EDT


 

Airport Tracker/Info


-or-


 

Live Flight TrackerFlight Track Log ✈ N2963Z ✈ 16-May-2013 ✈ KEWN - KORF

Flight Track Log - Related Links

Times and Time Zones

All times are in EDT time to prevent confusion due to time zone crossing. See the N2963Z flight status page for this flight to view local times or setup timezone preferences in your user account.

Time Position Orientation Groundspeed Altitude Reporting Facility
EDT Latitude Longitude Course Direction KTS MPH feet Rate Location/Type
08:25AM 35.1528 -76.9867 North 74 85 4,100  Level Washington Center
08:26AM 35.3528 -77.0017 North  Level FlightAware Approximate
08:26AM 35.1736 -76.9922 348° North 110 127 4,600  Level Washington Center
08:27AM 35.3928 -76.9913 15° North  Level FlightAware Approximate
08:27AM 35.1942 -76.9950 354° North 97 112 4,900  Level Washington Center
08:28AM 35.4330 -76.9819 North  Level FlightAware Approximate
08:28AM 35.2172 -76.9981 354° North 85 98 5,400  Level Washington Center
08:29AM 35.4739 -76.9781 North  Level FlightAware Approximate
08:29AM 35.2403 -76.9958 North 85 98 5,800  Level Washington Center
08:30AM 35.5149 -76.9744 North  Level FlightAware Approximate
08:30AM 35.2653 -76.9989 354° North 85 98 6,100  Level Washington Center
08:31AM 35.2883 -76.9917 14° North 85 98 6,500 300 Climbing Washington Center
08:32AM 35.3175 -76.9869 North 85 98 6,800 180 Climbing Washington Center
08:33AM 35.3531 -76.9825 North 107 123 6,900  Climbing Washington Center
08:34AM 35.3886 -76.9703 16° North 123 142 6,900  Level Washington Center
08:35AM 35.4283 -76.9686 North 129 148 6,900  Level Washington Center
08:36AM 35.4700 -76.9667 North 134 154 6,900  Level Washington Center
08:37AM 35.5097 -76.9647 North 134 154 6,900  Level Washington Center
08:38AM 35.5494 -76.9631 North 140 161 6,900 -60 Level Washington Center
08:39AM 35.5869 -76.9558 North 140 161 6,800  Descending Washington Center
08:40AM 35.6267 -76.9514 North 140 161 6,900  Climbing Washington Center
08:41AM 35.6706 -76.9497 North 140 161 6,900  Level Washington Center
08:42AM 35.7122 -76.9531 356° North 140 161 6,900  Level Washington Center
08:43AM 35.7542 -76.9486 North 140 161 6,900  Level Washington Center
08:44AM 35.7958 -76.9467 North 140 161 6,900  Level Washington Center
08:45AM 35.8333 -76.9372 12° North 140 161 6,900  Level Washington Center
08:46AM 35.8772 -76.9328 North 140 161 6,900  Level Washington Center
08:47AM 35.9192 -76.9206 13° North 145 167 6,900  Level Washington Center
08:48AM 35.9611 -76.9136 North 145 167 6,900  Level Washington Center
08:49AM 36.0028 -76.9067 North 145 167 6,900  Level Washington Center
08:50AM 36.0425 -76.8994 North 145 167 7,000 60 Climbing Washington Center
08:51AM 36.0697 -76.8947 North 151 174 7,000  Level Washington Center
08:51AM 36.0864 -76.8875 19° North 145 167 7,000  Level Washington Center
08:52AM 36.1200 -76.8647 29° Northeast 164 189 7,000  Level Washington Center
08:53AM 36.1622 -76.8269 36° Northeast 158 182 7,000  Level Washington Center
08:54AM 36.2000 -76.7967 33° Northeast 163 188 7,000  Level Washington Center
08:55AM 36.2358 -76.7689 32° Northeast 162 186 7,000  Level Washington Center
08:56AM 36.2736 -76.7411 31° Northeast 163 188 7,000  Level Washington Center
08:57AM 36.3158 -76.7003 38° Northeast 164 189 7,000  Level Washington Center
08:58AM 36.3494 -76.6725 34° Northeast 158 182 7,000  Level Washington Center
08:58AM 36.3578 -76.6700 14° North 164 189 7,000 -240 Level Washington Center
08:59AM 36.3831 -76.6394 44° Northeast 171 197 6,800 -360 Descending Washington Center
09:00AM 36.4167 -76.5986 44° Northeast 184 212 6,400 -420 Descending Washington Center
09:01AM 36.4653 -76.5397 44° Northeast 179 206 5,900 -480 Descending Washington Center
09:02AM 36.4883 -76.5067 49° Northeast 182 209 5,500 -480 Descending Washington Center
09:03AM 36.5411 -76.4581 36° Northeast 174 200 5,000 -300 Descending Washington Center
09:04AM 36.5661 -76.4325 39° Northeast 162 186 5,000  Level Washington Center
09:05AM 36.6039 -76.3914 41° Northeast 159 183 5,000  Level Washington Center
09:06AM 36.6375 -76.3556 41° Northeast 161 185 5,000  Level Washington Center
09:07AM 36.6733 -76.3197 39° Northeast 161 185 5,000 -60 Level Washington Center
09:08AM 36.7047 -76.2811 45° Northeast 164 189 4,900 -480 Descending Washington Center
09:09AM 36.7447 -76.2400 39° Northeast 183 211 4,100 -780 Descending Washington Center
09:10AM 36.7867 -76.2067 32° Northeast 179 206 3,400 -960 Descending Washington Center
09:11AM 36.8200 -76.1836 29° Northeast 168 193 2,400 -1,140 Descending Washington Center
09:12AM 36.8597 -76.1578 27° Northeast 110 127 1,200 -780 Descending Washington Center
09:13AM 36.8764 -76.1864 306° West 84 97 600 -540 Descending Washington Center